CheckWX is a tool to help pilots better visualize weather data.  It is not intended as a substitute for an official pre-flight weather briefing.

18:06:08 UTC

LGMT TAF
Mytilene International Airport
Mytilene, Greece
TAF LGMT 171700Z 1718/1803 33010KT CAVOK

Feb-17@
18:00 UTC

Feb-17 @ 18:00 UTC

Feb-18@
03:00 UTC

Feb-18 @ 03:00 UTC

TAF LGMT 171700Z 1718/1803 33010KT CAVOK
Wind
  • 330° at 10 KTS
Visibility
10,000+ meters
Conditions
No significant weather
Cloud Levels
  • No significant clouds